createdAt,value
2018-05-31T00:00:40.541Z,24.8
2018-05-31T00:01:41.907Z,24.8
2018-05-31T00:02:43.276Z,24.7
2018-05-31T00:03:44.648Z,24.8
2018-05-31T00:04:46.010Z,24.8
2018-05-31T00:05:47.361Z,24.7
2018-05-31T00:06:48.727Z,24.7
2018-05-31T00:07:50.103Z,24.7
2018-05-31T00:08:51.475Z,24.7
2018-05-31T00:09:52.841Z,24.6
2018-05-31T00:10:54.200Z,24.6
2018-05-31T00:11:55.576Z,24.7
2018-05-31T00:12:56.941Z,24.6
2018-05-31T00:13:58.306Z,24.6
2018-05-31T00:14:59.673Z,24.6
2018-05-31T00:16:01.053Z,24.5
2018-05-31T00:17:02.431Z,24.3
2018-05-31T00:18:03.804Z,24.2
2018-05-31T00:19:05.182Z,24.0
2018-05-31T00:20:07.128Z,24.0
2018-05-31T00:21:08.461Z,23.9
2018-05-31T00:22:09.824Z,23.8
2018-05-31T00:23:11.189Z,23.8
2018-05-31T00:24:12.671Z,23.7
2018-05-31T00:25:14.079Z,23.5
2018-05-31T00:26:15.417Z,23.5
2018-05-31T00:27:16.790Z,23.4
2018-05-31T00:28:18.160Z,23.4
2018-05-31T00:29:19.518Z,23.4
2018-05-31T00:30:20.883Z,23.3
2018-05-31T00:31:22.251Z,23.3
2018-05-31T00:32:23.622Z,23.3
2018-05-31T00:33:24.978Z,23.3
2018-05-31T00:34:26.349Z,23.2
2018-05-31T00:35:27.713Z,23.1
2018-05-31T00:36:29.073Z,23.0
2018-05-31T00:37:30.442Z,22.9
2018-05-31T00:38:31.870Z,22.8
2018-05-31T00:39:33.307Z,22.8
2018-05-31T00:40:34.652Z,22.7
2018-05-31T00:41:36.008Z,22.6
2018-05-31T00:42:37.387Z,22.6
2018-05-31T00:43:38.704Z,22.6
2018-05-31T00:44:40.068Z,22.6
2018-05-31T00:45:41.437Z,22.5
2018-05-31T00:46:42.801Z,22.5
2018-05-31T00:47:44.163Z,22.5
2018-05-31T00:48:45.526Z,22.4
2018-05-31T00:49:46.888Z,22.3
2018-05-31T00:50:48.259Z,22.2
2018-05-31T00:51:49.624Z,22.1
2018-05-31T00:52:50.990Z,22.0
2018-05-31T00:53:52.353Z,22.1
2018-05-31T00:54:53.718Z,22.1
2018-05-31T00:55:55.042Z,22.0
2018-05-31T00:56:56.412Z,22.1
2018-05-31T00:57:57.772Z,22.1
2018-05-31T00:58:59.148Z,22.1
2018-05-31T01:00:00.507Z,22.0
2018-05-31T01:01:01.896Z,21.9
2018-05-31T01:02:03.257Z,21.9
2018-05-31T01:03:04.624Z,21.9
2018-05-31T01:04:05.995Z,22.0
2018-05-31T01:05:07.369Z,21.8
2018-05-31T01:06:08.735Z,21.8
2018-05-31T01:07:10.072Z,21.7
2018-05-31T01:08:11.425Z,21.8
2018-05-31T01:09:12.795Z,21.7
2018-05-31T01:10:14.160Z,21.8
2018-05-31T01:11:15.527Z,21.8
2018-05-31T01:12:16.895Z,21.7
2018-05-31T01:13:18.269Z,21.6
2018-05-31T01:14:19.622Z,21.7
2018-05-31T01:15:20.995Z,21.7
2018-05-31T01:16:23.022Z,21.5
2018-05-31T01:17:24.393Z,21.6
2018-05-31T01:18:25.713Z,21.6
2018-05-31T01:19:27.076Z,21.4
2018-05-31T01:20:28.453Z,21.5
2018-05-31T01:21:29.819Z,21.3
2018-05-31T01:22:31.183Z,21.5
2018-05-31T01:23:32.550Z,21.3
2018-05-31T01:24:33.903Z,21.1
2018-05-31T01:25:35.272Z,21.0
2018-05-31T01:26:36.637Z,20.9
2018-05-31T01:27:38.022Z,20.9
2018-05-31T01:28:39.385Z,20.8
2018-05-31T01:29:40.744Z,20.8
2018-05-31T01:30:42.102Z,20.8
2018-05-31T01:31:43.470Z,20.8
2018-05-31T01:32:44.830Z,20.7
2018-05-31T01:33:46.191Z,20.7
2018-05-31T01:34:47.508Z,20.6
2018-05-31T01:35:48.872Z,20.6
2018-05-31T01:36:50.233Z,20.6
2018-05-31T01:37:51.599Z,20.5
2018-05-31T01:38:52.960Z,20.5
2018-05-31T01:39:54.336Z,20.6
2018-05-31T01:40:55.698Z,20.5
2018-05-31T01:41:59.623Z,20.5
2018-05-31T01:43:00.994Z,20.6
2018-05-31T01:44:03.225Z,20.5
2018-05-31T01:45:04.625Z,20.5
2018-05-31T01:46:06.030Z,20.4
2018-05-31T01:47:07.472Z,20.4
2018-05-31T01:48:08.857Z,20.3
2018-05-31T01:49:10.235Z,20.3
2018-05-31T01:50:11.713Z,20.2
2018-05-31T01:51:13.088Z,20.2
2018-05-31T01:52:14.447Z,20.2
2018-05-31T01:53:15.808Z,20.2
2018-05-31T01:54:17.132Z,20.3
2018-05-31T01:55:18.496Z,20.2
2018-05-31T01:56:19.859Z,20.1
2018-05-31T01:57:21.229Z,20.2
2018-05-31T01:58:22.595Z,20.3
2018-05-31T01:59:23.959Z,20.2
2018-05-31T02:00:25.316Z,20.1
2018-05-31T02:01:26.688Z,20.1
2018-05-31T02:02:28.045Z,20.1
2018-05-31T02:03:29.412Z,20.1
2018-05-31T02:04:30.772Z,20.1
2018-05-31T02:05:32.636Z,20.1
2018-05-31T02:06:34.001Z,20.0
2018-05-31T02:07:35.382Z,20.1
2018-05-31T02:08:36.743Z,20.0
2018-05-31T02:09:38.110Z,20.0
2018-05-31T02:10:39.471Z,20.0
2018-05-31T02:11:40.829Z,20.0
2018-05-31T02:12:42.199Z,20.0
2018-05-31T02:13:43.565Z,19.9
2018-05-31T02:14:44.939Z,19.9
2018-05-31T02:15:46.304Z,19.9
2018-05-31T02:16:47.671Z,19.8
2018-05-31T02:17:49.028Z,19.8
2018-05-31T02:18:50.394Z,19.8
2018-05-31T02:19:51.775Z,19.9
2018-05-31T02:20:53.138Z,19.8
2018-05-31T02:21:54.628Z,19.8
2018-05-31T02:22:55.984Z,19.7
2018-05-31T02:23:57.345Z,19.6
2018-05-31T02:24:58.728Z,19.6
2018-05-31T02:26:00.083Z,19.6
2018-05-31T02:27:01.456Z,19.6
2018-05-31T02:28:02.814Z,19.6
2018-05-31T02:29:04.186Z,19.5
2018-05-31T02:30:05.549Z,19.6
2018-05-31T02:31:06.905Z,19.5
2018-05-31T02:32:08.268Z,19.4
2018-05-31T02:33:09.640Z,19.4
2018-05-31T02:34:10.995Z,19.4
2018-05-31T02:35:12.361Z,19.4
2018-05-31T02:36:13.726Z,19.4
2018-05-31T02:37:15.089Z,19.5
2018-05-31T02:38:16.471Z,19.4
2018-05-31T02:39:17.785Z,19.4
2018-05-31T02:40:19.151Z,19.4
2018-05-31T02:41:20.511Z,19.4
2018-05-31T02:42:21.875Z,19.4
2018-05-31T02:43:23.241Z,19.4
2018-05-31T02:44:24.615Z,19.4
2018-05-31T02:45:25.972Z,19.5
2018-05-31T02:46:27.337Z,19.3
2018-05-31T02:47:28.701Z,19.4
2018-05-31T02:48:30.062Z,19.3
2018-05-31T02:49:31.439Z,19.3
2018-05-31T02:50:32.841Z,19.2
2018-05-31T02:51:34.270Z,19.3
2018-05-31T02:52:35.647Z,19.2
2018-05-31T02:53:37.004Z,19.2
2018-05-31T02:54:38.371Z,19.2
2018-05-31T02:55:39.739Z,19.2
2018-05-31T02:56:41.098Z,19.1
2018-05-31T02:57:42.479Z,19.2
2018-05-31T02:58:44.398Z,19.1
2018-05-31T02:59:45.794Z,19.1
2018-05-31T03:00:47.152Z,19.1
2018-05-31T03:01:48.510Z,19.2
2018-05-31T03:02:49.879Z,19.1
2018-05-31T03:03:51.242Z,19.1
2018-05-31T03:04:52.766Z,19.0
2018-05-31T03:05:54.139Z,19.2
2018-05-31T03:06:55.502Z,19.0
2018-05-31T03:07:56.860Z,19.1
2018-05-31T03:08:58.214Z,19.1
2018-05-31T03:09:59.572Z,19.0
2018-05-31T03:11:00.941Z,19.0
2018-05-31T03:12:02.329Z,19.1
2018-05-31T03:13:03.693Z,19.0
2018-05-31T03:14:05.016Z,19.0
2018-05-31T03:15:06.383Z,19.1
2018-05-31T03:16:07.748Z,19.0
2018-05-31T03:17:09.115Z,19.0
2018-05-31T03:18:10.490Z,19.0
2018-05-31T03:19:11.878Z,19.0
2018-05-31T03:20:13.237Z,19.0
2018-05-31T03:21:14.603Z,19.1
2018-05-31T03:22:15.970Z,19.0
2018-05-31T03:23:17.331Z,19.0
2018-05-31T03:24:18.695Z,19.0
2018-05-31T03:25:20.064Z,19.0
2018-05-31T03:26:21.448Z,19.0
2018-05-31T03:27:22.811Z,19.0
2018-05-31T03:28:24.178Z,19.0
2018-05-31T03:29:25.545Z,19.0
2018-05-31T03:30:26.910Z,19.0
2018-05-31T03:31:29.199Z,19.0
2018-05-31T03:32:30.569Z,19.0
2018-05-31T03:33:31.973Z,19.0
2018-05-31T03:34:33.334Z,19.0
2018-05-31T03:35:34.695Z,18.9
2018-05-31T03:36:36.062Z,18.9
2018-05-31T03:37:37.441Z,18.9
2018-05-31T03:38:38.811Z,18.8
2018-05-31T03:39:40.190Z,18.9
2018-05-31T03:40:41.547Z,18.9
2018-05-31T03:41:42.920Z,18.9
2018-05-31T03:42:44.282Z,18.8
2018-05-31T03:43:45.650Z,18.9
2018-05-31T03:44:47.016Z,18.9
2018-05-31T03:45:48.380Z,18.9
2018-05-31T03:46:49.749Z,18.9
2018-05-31T03:47:51.078Z,18.9
2018-05-31T03:48:52.453Z,18.9
2018-05-31T03:49:53.819Z,18.9
2018-05-31T03:50:55.189Z,18.9
2018-05-31T03:51:56.574Z,18.8
2018-05-31T03:52:57.937Z,18.9
2018-05-31T03:53:59.316Z,18.9
2018-05-31T03:55:00.685Z,18.8
2018-05-31T03:56:02.786Z,18.8
2018-05-31T03:57:04.156Z,18.8
2018-05-31T03:58:05.515Z,18.8
2018-05-31T03:59:06.889Z,18.8
2018-05-31T04:00:08.249Z,18.9
2018-05-31T04:01:09.615Z,18.8
2018-05-31T04:02:10.982Z,18.8
2018-05-31T04:03:12.367Z,18.7
2018-05-31T04:04:13.723Z,18.7
2018-05-31T04:05:15.115Z,18.7
2018-05-31T04:06:16.485Z,18.7
2018-05-31T04:07:17.848Z,18.7
2018-05-31T04:08:19.217Z,18.7
2018-05-31T04:09:20.597Z,18.7
2018-05-31T04:10:21.905Z,18.7
2018-05-31T04:11:23.281Z,18.7
2018-05-31T04:12:24.646Z,18.7
2018-05-31T04:13:26.023Z,18.7
2018-05-31T04:14:27.383Z,18.6
2018-05-31T04:15:28.748Z,18.7
2018-05-31T04:16:30.132Z,18.7
2018-05-31T04:17:31.500Z,18.7
2018-05-31T04:18:32.849Z,18.8
2018-05-31T04:19:34.222Z,18.7
2018-05-31T04:20:35.588Z,18.7
2018-05-31T04:21:36.954Z,18.8
2018-05-31T04:22:38.319Z,18.7
2018-05-31T04:23:39.690Z,18.7
2018-05-31T04:24:41.076Z,18.7
2018-05-31T04:25:42.431Z,18.7
2018-05-31T04:26:43.856Z,18.7
2018-05-31T04:27:45.232Z,18.8
2018-05-31T04:28:46.583Z,18.7
2018-05-31T04:29:47.953Z,18.7
2018-05-31T04:30:49.339Z,18.7
2018-05-31T04:31:50.706Z,18.7
2018-05-31T04:32:52.045Z,18.7
2018-05-31T04:33:53.400Z,18.7
2018-05-31T04:34:54.771Z,18.7
2018-05-31T04:35:56.136Z,18.7
2018-05-31T04:36:57.503Z,18.7
2018-05-31T04:37:58.876Z,18.7
2018-05-31T04:39:00.248Z,18.7
2018-05-31T04:40:01.640Z,18.7
2018-05-31T04:41:03.009Z,18.7
2018-05-31T04:42:04.379Z,18.7
2018-05-31T04:43:05.739Z,18.7
2018-05-31T04:44:07.109Z,18.7
2018-05-31T04:45:08.474Z,18.7
2018-05-31T04:46:09.844Z,18.7
2018-05-31T04:47:11.225Z,18.7
2018-05-31T04:48:12.599Z,18.7
2018-05-31T04:49:13.961Z,18.7
2018-05-31T04:50:15.324Z,18.7
2018-05-31T04:51:16.687Z,18.7
2018-05-31T04:52:18.050Z,18.7
2018-05-31T04:53:19.413Z,18.7
2018-05-31T04:54:20.775Z,18.7
2018-05-31T04:55:22.157Z,18.7
2018-05-31T04:56:23.531Z,18.8
2018-05-31T04:57:24.889Z,18.8
2018-05-31T04:58:26.257Z,18.7
2018-05-31T04:59:27.629Z,18.7
2018-05-31T05:00:28.994Z,18.8
2018-05-31T05:01:30.354Z,18.8
2018-05-31T05:02:32.203Z,18.8
2018-05-31T05:03:33.561Z,18.7
2018-05-31T05:04:34.930Z,18.7
2018-05-31T05:05:36.294Z,18.8
2018-05-31T05:06:37.622Z,18.9
2018-05-31T05:07:38.999Z,18.8
2018-05-31T05:08:40.365Z,18.8
2018-05-31T05:09:41.736Z,18.7
2018-05-31T05:10:43.105Z,18.7
2018-05-31T05:11:44.477Z,18.7
2018-05-31T05:12:45.849Z,18.7
2018-05-31T05:13:47.217Z,18.8
2018-05-31T05:14:48.590Z,18.8
2018-05-31T05:15:49.950Z,18.8
2018-05-31T05:16:51.323Z,18.8
2018-05-31T05:17:52.688Z,18.9
2018-05-31T05:18:54.071Z,18.9
2018-05-31T05:19:55.439Z,18.9
2018-05-31T05:20:56.805Z,18.9
2018-05-31T05:21:58.194Z,18.9
2018-05-31T05:22:59.565Z,18.9
2018-05-31T05:24:00.923Z,18.9
2018-05-31T05:25:02.288Z,19.0
2018-05-31T05:26:03.652Z,18.9
2018-05-31T05:27:05.022Z,19.0
2018-05-31T05:28:06.392Z,19.0
2018-05-31T05:29:07.766Z,19.0
2018-05-31T05:30:09.138Z,19.0
2018-05-31T05:31:10.518Z,19.1
2018-05-31T05:32:11.887Z,19.0
2018-05-31T05:33:13.264Z,19.0
2018-05-31T05:34:14.623Z,19.1
2018-05-31T05:35:16.961Z,19.0
2018-05-31T05:36:18.337Z,19.1
2018-05-31T05:37:19.708Z,19.1
2018-05-31T05:38:21.077Z,19.1
2018-05-31T05:39:22.441Z,19.3
2018-05-31T05:40:23.807Z,19.4
2018-05-31T05:41:25.179Z,19.6
2018-05-31T05:42:26.557Z,19.8
2018-05-31T05:43:27.926Z,19.9
2018-05-31T05:44:29.307Z,20.1
2018-05-31T05:45:30.673Z,20.2
2018-05-31T05:46:32.622Z,20.4
2018-05-31T05:47:34.002Z,20.5
2018-05-31T05:48:35.376Z,20.6
2018-05-31T05:49:36.754Z,20.7
2018-05-31T05:50:38.127Z,20.9
2018-05-31T05:51:39.501Z,20.9
2018-05-31T05:52:40.869Z,21.0
2018-05-31T05:53:42.236Z,21.0
2018-05-31T05:54:43.615Z,21.0
2018-05-31T05:55:44.991Z,21.1
2018-05-31T05:56:46.368Z,21.1
2018-05-31T05:57:47.739Z,21.2
2018-05-31T05:58:49.120Z,21.3
2018-05-31T05:59:50.500Z,21.3
2018-05-31T06:00:51.874Z,21.5
2018-05-31T06:01:53.267Z,21.6
2018-05-31T06:02:57.473Z,21.8
2018-05-31T06:03:58.852Z,21.9
2018-05-31T06:05:00.217Z,21.9
2018-05-31T06:06:02.284Z,22.1
2018-05-31T06:07:03.746Z,22.1
2018-05-31T06:08:05.166Z,22.2
2018-05-31T06:09:06.536Z,22.3
2018-05-31T06:10:07.953Z,22.3
2018-05-31T06:11:09.296Z,22.4
2018-05-31T06:12:10.664Z,22.4
2018-05-31T06:13:12.052Z,22.5
2018-05-31T06:14:13.432Z,22.5
2018-05-31T06:15:14.809Z,22.5
2018-05-31T06:16:16.189Z,22.5
2018-05-31T06:17:17.573Z,22.7
2018-05-31T06:18:18.945Z,22.6
2018-05-31T06:19:20.322Z,22.5
2018-05-31T06:20:21.703Z,22.4
2018-05-31T06:21:23.083Z,22.5
2018-05-31T06:22:24.455Z,22.5
2018-05-31T06:23:25.843Z,22.5
2018-05-31T06:24:27.871Z,22.7
2018-05-31T06:25:29.220Z,22.8
2018-05-31T06:26:30.838Z,22.9
2018-05-31T06:27:32.127Z,22.9
2018-05-31T06:28:33.525Z,23.1
2018-05-31T06:29:34.896Z,23.0
2018-05-31T06:30:36.269Z,23.1
2018-05-31T06:31:37.656Z,23.1
2018-05-31T06:32:39.031Z,23.2
2018-05-31T06:33:40.407Z,23.4
2018-05-31T06:34:41.800Z,23.2
2018-05-31T06:35:43.171Z,23.3
2018-05-31T06:36:44.552Z,23.3
2018-05-31T06:37:45.926Z,23.3
2018-05-31T06:38:47.343Z,23.2
2018-05-31T06:39:48.717Z,23.2
2018-05-31T06:40:50.102Z,23.2
2018-05-31T06:41:51.479Z,23.3
2018-05-31T06:42:52.870Z,23.4
2018-05-31T06:43:54.242Z,23.6
2018-05-31T06:44:55.611Z,23.5
2018-05-31T06:45:56.985Z,23.6
2018-05-31T06:46:58.368Z,23.7
2018-05-31T06:47:59.740Z,23.7
2018-05-31T06:49:01.117Z,23.7
2018-05-31T06:50:02.507Z,23.8
2018-05-31T06:51:03.890Z,23.8
2018-05-31T06:52:05.279Z,23.8
2018-05-31T06:53:06.656Z,23.8
2018-05-31T06:54:08.028Z,24.0
2018-05-31T06:55:09.416Z,24.0
2018-05-31T06:56:10.786Z,24.2
2018-05-31T06:57:12.170Z,24.3
2018-05-31T06:58:13.547Z,24.4
2018-05-31T06:59:14.934Z,24.3
2018-05-31T07:00:16.322Z,24.4
2018-05-31T07:01:17.700Z,24.4
2018-05-31T07:02:19.085Z,24.6
2018-05-31T07:03:20.463Z,24.5
2018-05-31T07:04:21.845Z,24.5
2018-05-31T07:05:23.232Z,24.6
2018-05-31T07:06:24.618Z,24.6
2018-05-31T07:07:26.019Z,24.6
2018-05-31T07:08:27.394Z,24.8
2018-05-31T07:09:28.780Z,24.8
2018-05-31T07:10:30.165Z,24.9
2018-05-31T07:11:32.387Z,25.0
2018-05-31T07:12:33.767Z,24.9
2018-05-31T07:13:35.151Z,24.9
2018-05-31T07:14:36.542Z,25.0
2018-05-31T07:15:37.942Z,24.9
2018-05-31T07:16:39.307Z,24.9
2018-05-31T07:17:40.699Z,24.8
2018-05-31T07:18:42.078Z,24.9
2018-05-31T07:19:43.455Z,25.0
2018-05-31T07:20:44.837Z,25.0
2018-05-31T07:21:46.235Z,25.1
2018-05-31T07:22:47.609Z,25.0
2018-05-31T07:23:48.991Z,25.1
2018-05-31T07:24:50.374Z,25.1
2018-05-31T07:25:51.767Z,25.1
2018-05-31T07:26:53.167Z,25.2
2018-05-31T07:27:54.543Z,25.3
2018-05-31T07:28:55.934Z,25.4
2018-05-31T07:29:57.318Z,25.4
2018-05-31T07:30:58.704Z,25.4
2018-05-31T07:32:00.091Z,25.6
2018-05-31T07:33:01.548Z,25.5
2018-05-31T07:34:02.931Z,25.6
2018-05-31T07:35:04.462Z,25.6
2018-05-31T07:36:05.844Z,25.7
2018-05-31T07:37:07.230Z,25.6
2018-05-31T07:38:08.629Z,25.4
2018-05-31T07:39:10.008Z,25.5
2018-05-31T07:40:11.390Z,25.4
2018-05-31T07:41:12.771Z,25.5
2018-05-31T07:42:14.160Z,25.6
2018-05-31T07:43:15.550Z,25.7
2018-05-31T07:44:16.980Z,25.7
2018-05-31T07:45:18.326Z,25.9
2018-05-31T07:46:19.710Z,25.9
2018-05-31T07:47:21.129Z,25.9
2018-05-31T07:48:22.484Z,25.9
2018-05-31T07:49:23.873Z,25.9
2018-05-31T07:50:25.251Z,25.8
2018-05-31T07:51:26.646Z,25.9
2018-05-31T07:52:28.036Z,26.0
2018-05-31T07:53:29.413Z,26.0
2018-05-31T07:54:30.805Z,26.1
2018-05-31T07:55:32.179Z,26.2
2018-05-31T07:56:34.725Z,26.3
2018-05-31T07:57:36.120Z,26.3
2018-05-31T07:58:37.505Z,26.5
2018-05-31T07:59:38.886Z,26.6
2018-05-31T08:00:40.275Z,26.6
2018-05-31T08:01:41.657Z,26.5
2018-05-31T08:02:43.048Z,26.4
2018-05-31T08:03:44.441Z,26.3
2018-05-31T08:04:45.846Z,26.4
2018-05-31T08:05:47.249Z,26.4
2018-05-31T08:06:48.627Z,26.5
2018-05-31T08:07:51.204Z,26.6
2018-05-31T08:08:52.589Z,26.4
2018-05-31T08:09:54.445Z,26.4
2018-05-31T08:10:55.847Z,26.5
2018-05-31T08:11:57.238Z,26.5
2018-05-31T08:12:58.623Z,26.6
2018-05-31T08:14:00.008Z,26.5
2018-05-31T08:15:02.280Z,26.6
2018-05-31T08:16:03.708Z,26.7
2018-05-31T08:17:05.135Z,26.8
2018-05-31T08:18:06.519Z,26.9
2018-05-31T08:19:07.915Z,26.9
2018-05-31T08:20:09.300Z,27.0
2018-05-31T08:21:10.691Z,27.2
2018-05-31T08:22:12.082Z,27.2
2018-05-31T08:23:13.474Z,27.3
2018-05-31T08:24:14.870Z,27.3
2018-05-31T08:25:16.383Z,27.2
2018-05-31T08:26:17.777Z,27.2
2018-05-31T08:27:19.166Z,27.2
2018-05-31T08:28:20.562Z,27.3
2018-05-31T08:29:21.947Z,27.3
2018-05-31T08:30:23.352Z,27.3
2018-05-31T08:31:24.824Z,27.3
2018-05-31T08:32:26.132Z,27.3
2018-05-31T08:33:27.528Z,27.3
2018-05-31T08:34:29.911Z,27.3
2018-05-31T08:35:31.294Z,27.3
2018-05-31T08:36:32.685Z,27.4
2018-05-31T08:37:34.074Z,27.4
2018-05-31T08:38:35.466Z,27.3
2018-05-31T08:39:36.849Z,27.3
2018-05-31T08:40:38.240Z,27.4
2018-05-31T08:41:39.626Z,27.4
2018-05-31T08:42:41.017Z,27.5
2018-05-31T08:43:42.405Z,27.5
2018-05-31T08:44:43.800Z,27.5
2018-05-31T08:45:45.178Z,27.7
2018-05-31T08:46:46.562Z,27.7
2018-05-31T08:47:47.956Z,27.7
2018-05-31T08:48:49.347Z,27.8
2018-05-31T08:49:50.748Z,27.7
2018-05-31T08:50:52.133Z,27.6
2018-05-31T08:51:53.521Z,27.5
2018-05-31T08:52:54.912Z,27.4
2018-05-31T08:53:56.321Z,27.4
2018-05-31T08:54:57.714Z,27.3
2018-05-31T08:55:59.107Z,27.4
2018-05-31T08:57:00.536Z,27.5
2018-05-31T08:58:02.751Z,27.6
2018-05-31T08:59:04.143Z,27.6
2018-05-31T09:00:05.532Z,27.7
2018-05-31T09:01:08.415Z,27.7
2018-05-31T09:02:09.802Z,27.6
2018-05-31T09:03:11.197Z,27.8
2018-05-31T09:04:12.581Z,27.7
2018-05-31T09:05:13.968Z,27.7
2018-05-31T09:06:15.362Z,27.8
2018-05-31T09:07:16.761Z,27.9
2018-05-31T09:08:18.145Z,27.9
2018-05-31T09:09:19.535Z,27.9
2018-05-31T09:10:20.921Z,27.9
2018-05-31T09:11:22.338Z,27.9
2018-05-31T09:12:23.724Z,28.0
2018-05-31T09:13:25.111Z,28.0
2018-05-31T09:14:26.501Z,28.0
2018-05-31T09:15:28.431Z,28.1
2018-05-31T09:16:29.819Z,28.0
2018-05-31T09:17:31.205Z,28.1
2018-05-31T09:18:32.808Z,28.3
2018-05-31T09:19:34.202Z,28.2
2018-05-31T09:20:35.596Z,28.4
2018-05-31T09:21:36.986Z,28.5
2018-05-31T09:22:38.377Z,28.6
2018-05-31T09:23:39.768Z,28.5
2018-05-31T09:24:41.179Z,28.7
2018-05-31T09:25:42.579Z,28.7
2018-05-31T09:26:44.056Z,28.7
2018-05-31T09:27:46.226Z,28.5
2018-05-31T09:28:47.625Z,28.3
2018-05-31T09:29:49.013Z,28.4
2018-05-31T09:30:50.425Z,28.2
2018-05-31T09:31:51.810Z,28.3
2018-05-31T09:32:53.198Z,28.3
2018-05-31T09:33:54.591Z,28.3
2018-05-31T09:34:56.002Z,28.2
2018-05-31T09:35:57.394Z,27.9
2018-05-31T09:36:58.785Z,27.9
2018-05-31T09:38:00.179Z,27.9
2018-05-31T09:39:01.624Z,27.8
2018-05-31T09:40:03.015Z,27.8
2018-05-31T09:41:04.440Z,27.8
2018-05-31T09:42:05.803Z,27.8
2018-05-31T09:43:07.192Z,27.9
2018-05-31T09:44:08.596Z,28.0
2018-05-31T09:45:09.977Z,28.1
2018-05-31T09:46:11.373Z,28.1
2018-05-31T09:47:12.771Z,28.2
2018-05-31T09:48:14.162Z,28.2
2018-05-31T09:49:15.544Z,28.2
2018-05-31T09:50:16.932Z,28.4
2018-05-31T09:51:18.324Z,28.4
2018-05-31T09:52:19.717Z,28.4
2018-05-31T09:53:21.142Z,28.6
2018-05-31T09:54:22.541Z,28.7
2018-05-31T09:55:23.927Z,28.8
2018-05-31T09:56:25.320Z,28.9
2018-05-31T09:57:26.700Z,28.9
2018-05-31T09:58:28.092Z,28.9
2018-05-31T09:59:29.542Z,29.0
2018-05-31T10:00:30.933Z,28.9
2018-05-31T10:01:32.304Z,28.9
2018-05-31T10:02:33.731Z,28.9
2018-05-31T10:03:35.112Z,28.7
2018-05-31T10:04:36.501Z,28.5
2018-05-31T10:05:37.895Z,28.2
2018-05-31T10:06:39.286Z,28.1
2018-05-31T10:07:40.675Z,27.9
2018-05-31T10:08:42.088Z,28.0
2018-05-31T10:09:43.464Z,28.2
2018-05-31T10:10:44.851Z,28.2
2018-05-31T10:11:46.241Z,28.3
2018-05-31T10:12:47.635Z,28.2
2018-05-31T10:13:49.027Z,28.4
2018-05-31T10:14:50.419Z,28.5
2018-05-31T10:15:51.804Z,28.6
2018-05-31T10:16:53.193Z,28.7
2018-05-31T10:17:54.593Z,28.8
2018-05-31T10:18:55.991Z,28.8
2018-05-31T10:19:57.400Z,28.9
2018-05-31T10:20:58.906Z,28.9
2018-05-31T10:22:00.296Z,28.9
2018-05-31T10:23:01.753Z,28.9
2018-05-31T10:24:03.164Z,29.0
2018-05-31T10:25:04.564Z,29.1
2018-05-31T10:26:05.953Z,29.1
2018-05-31T10:27:07.339Z,29.0
2018-05-31T10:28:08.843Z,29.0
2018-05-31T10:29:10.238Z,29.0
2018-05-31T10:30:11.653Z,29.0
2018-05-31T10:31:13.027Z,29.0
2018-05-31T10:32:14.422Z,28.9
2018-05-31T10:33:15.812Z,29.0
2018-05-31T10:34:17.208Z,29.0
2018-05-31T10:35:18.591Z,29.0
2018-05-31T10:36:19.980Z,28.7
2018-05-31T10:37:21.377Z,28.7
2018-05-31T10:38:22.762Z,28.8
2018-05-31T10:39:24.161Z,28.8
2018-05-31T10:40:25.534Z,28.8
2018-05-31T10:41:26.925Z,28.9
2018-05-31T10:42:28.308Z,28.9
2018-05-31T10:43:29.695Z,29.0
2018-05-31T10:44:31.087Z,29.0
2018-05-31T10:45:32.480Z,28.9
2018-05-31T10:46:33.887Z,28.9
2018-05-31T10:47:35.286Z,28.8
2018-05-31T10:48:36.672Z,28.8
2018-05-31T10:49:38.050Z,28.8
2018-05-31T10:50:39.449Z,28.9
2018-05-31T10:51:40.848Z,29.0
2018-05-31T10:52:42.241Z,29.2
2018-05-31T10:53:43.642Z,29.3
2018-05-31T10:54:45.028Z,29.3
2018-05-31T10:55:46.428Z,29.4
2018-05-31T10:56:47.820Z,29.3
2018-05-31T10:57:49.216Z,29.2
2018-05-31T10:58:50.613Z,29.1
2018-05-31T10:59:52.011Z,29.1
2018-05-31T11:00:53.398Z,29.2
2018-05-31T11:01:54.793Z,29.3
2018-05-31T11:02:56.205Z,29.4
2018-05-31T11:03:57.596Z,29.5
2018-05-31T11:04:59.041Z,29.6
2018-05-31T11:06:00.431Z,29.6
2018-05-31T11:07:02.747Z,29.7
2018-05-31T11:08:04.141Z,29.6
2018-05-31T11:09:05.525Z,29.7
2018-05-31T11:10:06.923Z,29.6
2018-05-31T11:11:08.316Z,29.9
2018-05-31T11:12:09.709Z,30.0
2018-05-31T11:13:11.107Z,30.1
2018-05-31T11:14:12.528Z,30.2
2018-05-31T11:15:13.930Z,30.2
2018-05-31T11:16:15.341Z,30.2
2018-05-31T11:17:16.734Z,29.9
2018-05-31T11:18:18.163Z,29.9
2018-05-31T11:19:19.579Z,29.9
2018-05-31T11:20:21.101Z,29.9
2018-05-31T11:21:22.489Z,29.8
2018-05-31T11:22:23.886Z,29.7
2018-05-31T11:23:25.295Z,29.7
2018-05-31T11:24:26.686Z,29.6
2018-05-31T11:25:28.077Z,29.6
2018-05-31T11:26:29.478Z,29.6
2018-05-31T11:27:30.980Z,29.5
2018-05-31T11:28:32.385Z,29.7
2018-05-31T11:29:33.772Z,29.5
2018-05-31T11:30:35.161Z,29.6
2018-05-31T11:31:36.561Z,29.5
2018-05-31T11:32:37.954Z,29.5
2018-05-31T11:33:39.340Z,29.3
2018-05-31T11:34:40.750Z,29.3
2018-05-31T11:35:42.121Z,29.3
2018-05-31T11:36:43.564Z,29.2
2018-05-31T11:37:44.953Z,29.2
2018-05-31T11:38:46.345Z,29.2
2018-05-31T11:39:47.731Z,29.3
2018-05-31T11:40:49.117Z,29.6
2018-05-31T11:41:50.514Z,29.6
2018-05-31T11:42:51.905Z,29.6
2018-05-31T11:43:53.301Z,29.7
2018-05-31T11:44:54.703Z,29.8
2018-05-31T11:45:56.099Z,29.8
2018-05-31T11:46:57.465Z,29.8
2018-05-31T11:47:58.859Z,29.8
2018-05-31T11:49:00.249Z,29.6
2018-05-31T11:50:01.692Z,29.5
2018-05-31T11:51:03.075Z,29.4
2018-05-31T11:52:04.469Z,29.4
2018-05-31T11:53:05.857Z,29.6
2018-05-31T11:54:07.260Z,29.5
2018-05-31T11:55:08.649Z,29.5
2018-05-31T11:56:10.032Z,29.5
2018-05-31T11:57:11.425Z,29.3
2018-05-31T11:58:12.812Z,29.4
2018-05-31T11:59:14.195Z,29.5
2018-05-31T12:00:15.582Z,29.3
2018-05-31T12:01:16.980Z,29.1
2018-05-31T12:02:18.359Z,28.9
2018-05-31T12:03:19.757Z,28.9
2018-05-31T12:04:21.144Z,28.9
2018-05-31T12:05:22.534Z,29.1
2018-05-31T12:06:23.940Z,29.0
2018-05-31T12:07:25.308Z,29.1
2018-05-31T12:08:26.751Z,29.1
2018-05-31T12:09:28.077Z,29.2
2018-05-31T12:10:29.469Z,29.1
2018-05-31T12:11:30.855Z,29.1
2018-05-31T12:12:32.244Z,29.1
2018-05-31T12:13:33.626Z,29.2
2018-05-31T12:14:35.014Z,29.2
2018-05-31T12:15:36.399Z,29.4
2018-05-31T12:16:37.791Z,29.3
2018-05-31T12:17:39.205Z,29.4
2018-05-31T12:18:40.529Z,29.5
2018-05-31T12:19:41.931Z,29.5
2018-05-31T12:20:43.340Z,29.6
2018-05-31T12:21:44.725Z,29.6
2018-05-31T12:22:46.110Z,29.7
2018-05-31T12:23:47.501Z,29.6
2018-05-31T12:24:48.898Z,29.7
2018-05-31T12:25:50.281Z,29.6
2018-05-31T12:26:51.675Z,29.7
2018-05-31T12:27:53.087Z,29.8
2018-05-31T12:28:54.475Z,29.9
2018-05-31T12:29:55.906Z,29.9
2018-05-31T12:30:57.288Z,29.8
2018-05-31T12:31:58.681Z,29.7
2018-05-31T12:33:00.070Z,29.6
2018-05-31T12:34:01.464Z,29.5
2018-05-31T12:35:02.853Z,29.4
2018-05-31T12:36:04.242Z,29.3
2018-05-31T12:37:05.616Z,29.3
2018-05-31T12:38:07.007Z,29.2
2018-05-31T12:39:08.395Z,29.3
2018-05-31T12:40:09.778Z,29.4
2018-05-31T12:41:11.175Z,29.4
2018-05-31T12:42:12.558Z,29.5
2018-05-31T12:43:13.952Z,29.5
2018-05-31T12:44:15.346Z,29.5
2018-05-31T12:45:16.734Z,29.6
2018-05-31T12:46:18.134Z,29.7
2018-05-31T12:47:19.518Z,29.7
2018-05-31T12:48:20.899Z,29.7
2018-05-31T12:49:22.288Z,29.7
2018-05-31T12:50:23.670Z,29.7
2018-05-31T12:51:25.053Z,29.7
2018-05-31T12:52:26.433Z,29.6
2018-05-31T12:53:27.819Z,29.5
2018-05-31T12:54:29.204Z,29.5
2018-05-31T12:55:30.599Z,29.6
2018-05-31T12:56:31.998Z,29.6
2018-05-31T12:57:33.380Z,29.6
2018-05-31T12:58:34.777Z,29.5
2018-05-31T12:59:36.160Z,29.5
2018-05-31T13:00:37.548Z,29.5
2018-05-31T13:01:38.928Z,29.6
2018-05-31T13:02:40.318Z,29.5
2018-05-31T13:03:41.697Z,29.4
2018-05-31T13:04:43.082Z,29.3
2018-05-31T13:05:44.548Z,29.3
2018-05-31T13:06:45.819Z,29.3
2018-05-31T13:07:47.202Z,29.3
2018-05-31T13:08:48.585Z,29.2
2018-05-31T13:09:49.968Z,29.3
2018-05-31T13:10:51.357Z,29.4
2018-05-31T13:11:52.753Z,29.3
2018-05-31T13:12:54.136Z,29.3
2018-05-31T13:13:55.547Z,29.2
2018-05-31T13:14:57.057Z,29.3
2018-05-31T13:15:58.482Z,29.5
2018-05-31T13:16:59.916Z,29.4
2018-05-31T13:18:01.306Z,29.5
2018-05-31T13:19:02.726Z,29.4
2018-05-31T13:20:04.152Z,29.5
2018-05-31T13:21:05.542Z,29.6
2018-05-31T13:22:06.936Z,29.7
2018-05-31T13:23:08.376Z,29.6
2018-05-31T13:24:09.791Z,29.4
2018-05-31T13:25:11.216Z,29.3
2018-05-31T13:26:12.558Z,29.3
2018-05-31T13:27:13.942Z,29.3
2018-05-31T13:28:15.330Z,29.3
2018-05-31T13:29:16.738Z,29.5
2018-05-31T13:30:18.115Z,29.7
2018-05-31T13:31:19.515Z,29.6
2018-05-31T13:32:20.912Z,29.7
2018-05-31T13:33:22.371Z,29.8
2018-05-31T13:34:23.703Z,29.8
2018-05-31T13:35:25.089Z,29.9
2018-05-31T13:36:26.483Z,30.0
2018-05-31T13:37:27.878Z,30.0